Gangu, China
Current Conditions -  °F | °C
As of 11:00 AM on Sunday 26 Oct 2014 (Local Time) from ZLLL Reporting Station
Clear Clear  
Wind Chill: 54°   Ceiling: Unl
Heat Index: 54°   Visibility: 5mi
Dew Point: 39°   Wind: 4mph
Humidity: 58%   Direction: NA
Pressure: 30.27"   Gusts: NA
Location:  34.75°N, 105.2°E
Report Text: ZLLL 260300Z VRB02MPS 8000 NSC 12/04 Q1025 NOSIG
Loading
Personal Weather Stations






























Interactive Weather Map
Tropical Storm Tracking
New forecast layout! Learn more

10-Day Weather Forecast

Advertisements
Track Severe Weather on mobile